Ufs Tw-Ems, Germany

9:45 AM CET on October 31, 2014 (GMT +0100)
Awg-1 Sea | Change Station
CLOSE
Current Station
Airport
Location: Awg-1 Sea,
Elevation: 85 ft
Nearby Weather Stations

Elev 85 ft 53.49 °N, 5.94 °E | Updated 20 minutes ago

Light Rain
Light Rain
54 °F
Feels Like 54 °F
N
23
Wind Variable Wind from SSW

Today
High -- | Low -- °F
--% Chance of Precip.
Yesterday
High -- | Low -- °F
Precip. -- in
7:33 AM 5:02 PM
First Quarter, 53% visible
Pressure 30.12 in
Visibility 0.5 miles
Clouds
Dew Point 54 °F
Humidity 100%
Rainfall 0.00 in
Snow Depth Not available.
UV Not available.
Pollen Not available.
Air Quality Not available.
Flu Activity Not available.
METAR EHMA 310825Z AUTO 20020KT 0800 -RA VV000 12/12 Q1020 RERA REDZ

More Conditions Fewer Conditions

Pressure 30.12 in
Visibility 0.5 miles
Clouds
Dew Point 54 °F
Humidity 100%
Rainfall 0.00 in
Snow Depth Not available.
UV Not available.
Pollen Not available.
Air Quality Not available.
Flu Activity Not available.
METAR EHMA 310825Z AUTO 20020KT 0800 -RA VV000 12/12 Q1020 RERA REDZ

More Conditions Fewer Conditions

10-Day Weather Forecast

Almanac

Astronomy

Oct. 31, 2014 Rise Set
Actual Time
Civil Twilight
Nautical Twilight
Astronomical Twilight
Moon
Length of Visible Light
Length of Day
Tomorrow will be .
, % of the Moon is Illuminated

Today's Extremes

Country Highs Country Lows

Community

WunderPhotos

Upload Photos

1,766,573 photos uploaded!

WunderBlogs® & News

Nearby

Air Quality

  Air Quality AQ Index Pollutant
Not available.

Snow Depth

Station Depth Elevation

Earthquake Activity

City Distance Mag. Time & Date
Minimum magnitude displayed is 2.5.

Coastal Water Temperatures

Place Temperature

Nearby Weather Stations